ěÝzenÝ letovÚho provozu ╚eskÚ republiky
Letiste: LKPJ Aktualizace: 07.07.2020 14:31:25  UTC
 METAR LKPJ 07.07. 14:30 ...
METAR LKPJ 071430Z AUTO 36005KT 310V020 9999 OVC080 18/09 Q1019=